Oatman, Arizona
Current Conditions -  °F | °C
As of 6:15 AM on Sunday 23 Nov 2014 (Local Time) from KIFP Reporting Station
Clear Clear  
Wind Chill: 61°   Ceiling: Unl
Heat Index: 61°   Visibility: 10mi
Dew Point: 30°   Wind: 14mph
Humidity: 31%   Direction: 10°N
Pressure: 30.08"   Gusts: NA
Location:  35.03°N, 114.38°W
Report Text: KIFP 231315Z AUTO 01012KT 10SM CLR 16/M01 A3008 RMK AO2 PWINO
Loading
Personal Weather Stations






























Interactive Weather Map New forecast layout! Learn more

10-Day Weather Forecast

Advertisements
Track Severe Weather on mobile